Southern Lily — 9VJK4 — position and weather

sailwx.info

Track history (hours):
 
Tides and Currents Weather Stations Pressure Air Temp Water Temp Dewpoint Dewpoint Depression Visibility Wind Speed Wind Dir Waves Ship Positions

Southern Lily

Last reported at 2015-Sep-01 21:33 UTC. Time now 2015-Sep-01 22:22 UTC.
Position S 36°51' E 174°47'.

Length 146 m; draft 5.5 m.

Type: Cargo ship. MMSI: 565050000.

Date/timePositionNaut miles runAvg speedWind from/ knotsBaromVisibWave heightAir tempDewpointWater temp
2015-Sep-01 21:33S 36°51' E 174°47'0 0.0
2015-Sep-01 20:33S 36°51' E 174°47'0 0.0
2015-Sep-01 19:33S 36°51' E 174°47'0 0.0
2015-Sep-01 18:33S 36°51' E 174°47'1 1.3
2015-Sep-01 17:33S 36°50' E 174°48'9 9.2
2015-Sep-01 16:33S 36°42' E 174°53'7 6.8
2015-Sep-01 15:33S 36°37' E 174°58'8 8.0
2015-Sep-01 14:33S 36°29' E 174°60'9 8.8
2015-Sep-01 13:33S 36°20' E 174°58'9 9.4
2015-Sep-01 12:33S 36°10' E 174°57'  
Track history (hours):
 
Tides and Currents Weather Stations Pressure Air Temp Water Temp Dewpoint Dewpoint Depression Visibility Wind Speed Wind Dir Waves Ship Positions

Southern Lily

Last reported at 2015-Sep-01 21:33 UTC. Time now 2015-Sep-01 22:22 UTC.
Position S 36°51' E 174°47'.

Length 146 m; draft 5.5 m.

Type: Cargo ship. MMSI: 565050000.

Date/timePositionNaut miles runAvg speedWind from/ knotsBaromVisibWave heightAir tempDewpointWater temp
2015-Sep-01 21:33S 36°51' E 174°47'0 0.0
2015-Sep-01 20:33S 36°51' E 174°47'0 0.0
2015-Sep-01 19:33S 36°51' E 174°47'0 0.0
2015-Sep-01 18:33S 36°51' E 174°47'1 1.3
2015-Sep-01 17:33S 36°50' E 174°48'9 9.2
2015-Sep-01 16:33S 36°42' E 174°53'7 6.8
2015-Sep-01 15:33S 36°37' E 174°58'8 8.0
2015-Sep-01 14:33S 36°29' E 174°60'9 8.8
2015-Sep-01 13:33S 36°20' E 174°58'9 9.4
2015-Sep-01 12:33S 36°10' E 174°57'  

Dump ship's entire track history